createdAt,value
2019-03-28T00:02:25.468Z,65.17
2019-03-28T00:05:17.836Z,61.63
2019-03-28T00:08:12.391Z,61.50
2019-03-28T00:11:03.791Z,57.27
2019-03-28T00:13:56.613Z,68.37
2019-03-28T00:16:49.491Z,65.70
2019-03-28T00:19:42.995Z,68.17
2019-03-28T00:22:53.830Z,56.30
2019-03-28T00:25:46.990Z,58.77
2019-03-28T00:28:39.459Z,59.80
2019-03-28T00:31:32.585Z,67.07
2019-03-28T00:34:25.423Z,57.27
2019-03-28T00:37:18.288Z,56.60
2019-03-28T00:40:10.481Z,63.60
2019-03-28T00:43:03.084Z,59.47
2019-03-28T00:45:56.207Z,60.10
2019-03-28T00:48:48.462Z,62.77
2019-03-28T00:51:43.120Z,56.90
2019-03-28T00:54:35.825Z,61.13
2019-03-28T00:57:28.016Z,61.53
2019-03-28T01:00:20.624Z,59.47
2019-03-28T01:03:13.110Z,64.23
2019-03-28T01:06:05.749Z,59.00
2019-03-28T01:08:58.357Z,62.50
2019-03-28T01:11:50.550Z,61.37
2019-03-28T01:14:43.130Z,63.87
2019-03-28T01:17:35.602Z,64.33
2019-03-28T01:20:28.450Z,62.20
2019-03-28T01:23:21.156Z,56.53
2019-03-28T01:26:14.591Z,61.97
2019-03-28T01:29:07.040Z,55.37
2019-03-28T01:31:59.479Z,58.50
2019-03-28T01:34:51.616Z,67.73
2019-03-28T01:37:43.730Z,69.57
2019-03-28T01:40:36.147Z,52.73
2019-03-28T01:43:28.312Z,61.80
2019-03-28T01:46:21.140Z,65.53
2019-03-28T01:49:13.347Z,64.47
2019-03-28T01:52:05.808Z,74.37
2019-03-28T01:54:57.964Z,60.40
2019-03-28T01:57:50.021Z,60.97
2019-03-28T02:00:42.418Z,58.43
2019-03-28T02:03:34.749Z,54.33
2019-03-28T02:06:26.823Z,69.43
2019-03-28T02:09:19.023Z,61.33
2019-03-28T02:12:11.584Z,69.27
2019-03-28T02:15:04.262Z,57.67
2019-03-28T02:17:57.388Z,61.87
2019-03-28T02:20:49.934Z,52.70
2019-03-28T02:23:43.792Z,62.40
2019-03-28T02:26:35.930Z,62.27
2019-03-28T02:29:28.116Z,56.77
2019-03-28T02:32:20.504Z,67.23
2019-03-28T02:35:12.760Z,60.33
2019-03-28T02:38:05.030Z,65.87
2019-03-28T02:40:57.312Z,63.60
2019-03-28T02:43:49.440Z,68.93
2019-03-28T02:46:41.817Z,73.80
2019-03-28T02:49:33.977Z,89.13
2019-03-28T02:52:26.098Z,77.13
2019-03-28T02:55:18.321Z,64.37
2019-03-28T02:58:11.142Z,71.47
2019-03-28T03:01:04.233Z,77.97
2019-03-28T03:03:57.296Z,66.53
2019-03-28T03:06:49.625Z,67.70
2019-03-28T03:09:42.683Z,70.03
2019-03-28T03:12:34.783Z,73.73
2019-03-28T03:15:27.219Z,73.77
2019-03-28T03:18:21.523Z,71.33
2019-03-28T03:21:13.896Z,78.73
2019-03-28T03:24:06.601Z,67.63
2019-03-28T03:26:59.019Z,63.50
2019-03-28T03:29:51.482Z,68.80
2019-03-28T03:32:44.068Z,62.90
2019-03-28T03:35:37.214Z,72.57
2019-03-28T03:38:29.711Z,64.17
2019-03-28T03:41:22.792Z,80.23
2019-03-28T03:44:16.091Z,70.10
2019-03-28T03:47:08.724Z,69.67
2019-03-28T03:50:01.045Z,69.10
2019-03-28T03:52:54.124Z,73.93
2019-03-28T03:55:48.395Z,72.40
2019-03-28T03:58:40.919Z,72.50
2019-03-28T04:01:33.942Z,75.93
2019-03-28T04:04:26.512Z,65.50
2019-03-28T04:07:19.019Z,66.30
2019-03-28T04:10:11.586Z,68.13
2019-03-28T04:13:04.579Z,88.23
2019-03-28T04:15:57.182Z,71.93
2019-03-28T04:18:49.353Z,68.70
2019-03-28T04:21:41.892Z,75.90
2019-03-28T04:24:34.918Z,70.83
2019-03-28T04:27:27.332Z,78.23
2019-03-28T04:30:20.392Z,69.50
2019-03-28T04:33:12.680Z,71.03
2019-03-28T04:36:05.234Z,64.73
2019-03-28T04:38:57.536Z,71.40
2019-03-28T04:41:51.033Z,73.27
2019-03-28T04:44:43.427Z,66.73
2019-03-28T04:47:36.276Z,67.20
2019-03-28T04:50:28.829Z,68.43
2019-03-28T04:53:20.965Z,90.20
2019-03-28T04:56:13.306Z,74.90
2019-03-28T04:59:05.791Z,78.83
2019-03-28T05:02:03.040Z,65.70
2019-03-28T05:04:52.285Z,78.53
2019-03-28T05:07:44.896Z,83.70
2019-03-28T05:10:37.628Z,78.60
2019-03-28T05:13:30.071Z,81.57
2019-03-28T05:16:23.314Z,87.13
2019-03-28T05:19:15.944Z,79.67
2019-03-28T05:22:08.244Z,78.40
2019-03-28T05:25:00.824Z,76.83
2019-03-28T05:27:53.119Z,75.60
2019-03-28T05:30:45.300Z,67.90
2019-03-28T05:33:38.806Z,66.30
2019-03-28T05:36:31.203Z,66.47
2019-03-28T05:39:23.644Z,75.87
2019-03-28T05:42:15.912Z,81.50
2019-03-28T05:45:09.768Z,68.40
2019-03-28T05:48:01.919Z,71.43
2019-03-28T05:50:53.990Z,66.30
2019-03-28T05:53:46.565Z,68.40
2019-03-28T05:56:39.299Z,61.20
2019-03-28T05:59:31.927Z,71.50
2019-03-28T06:02:24.636Z,73.17
2019-03-28T06:05:17.190Z,71.83
2019-03-28T06:08:09.903Z,68.00
2019-03-28T06:11:02.439Z,77.37
2019-03-28T06:13:55.065Z,66.67
2019-03-28T06:16:47.438Z,78.57
2019-03-28T06:19:39.798Z,79.97
2019-03-28T06:22:32.035Z,90.07
2019-03-28T06:25:26.174Z,80.73
2019-03-28T06:28:18.690Z,78.77
2019-03-28T06:31:11.135Z,73.83
2019-03-28T06:34:03.580Z,76.87
2019-03-28T06:36:55.697Z,86.57
2019-03-28T06:39:47.955Z,76.63
2019-03-28T06:42:40.005Z,69.10
2019-03-28T06:45:32.190Z,78.43
2019-03-28T06:48:24.627Z,76.30
2019-03-28T06:51:17.551Z,70.17
2019-03-28T06:54:09.975Z,72.10
2019-03-28T06:57:02.347Z,86.57
2019-03-28T06:59:54.431Z,77.10
2019-03-28T07:02:47.225Z,72.00
2019-03-28T07:05:39.384Z,66.30
2019-03-28T07:08:31.987Z,75.17
2019-03-28T07:11:24.620Z,75.37
2019-03-28T07:14:17.001Z,67.67
2019-03-28T07:17:09.686Z,61.40
2019-03-28T07:20:02.804Z,66.00
2019-03-28T07:22:55.704Z,69.53
2019-03-28T07:25:48.187Z,63.00
2019-03-28T07:28:40.690Z,66.47
2019-03-28T07:31:35.336Z,74.67
2019-03-28T07:34:27.239Z,68.87
2019-03-28T07:37:19.386Z,69.33
2019-03-28T07:40:12.040Z,67.80
2019-03-28T07:43:04.192Z,83.63
2019-03-28T07:45:56.590Z,75.20
2019-03-28T07:48:49.196Z,67.17
2019-03-28T07:51:41.869Z,71.23
2019-03-28T07:54:34.082Z,71.03
2019-03-28T07:57:26.484Z,63.03
2019-03-28T08:00:19.450Z,70.77
2019-03-28T08:03:12.060Z,63.63
2019-03-28T08:06:04.315Z,64.00
2019-03-28T08:08:56.856Z,65.00
2019-03-28T08:11:49.155Z,60.73
2019-03-28T08:14:41.498Z,61.43
2019-03-28T08:17:33.867Z,61.37
2019-03-28T08:20:27.203Z,60.57
2019-03-28T08:23:19.499Z,63.50
2019-03-28T08:26:11.765Z,54.13
2019-03-28T08:29:04.284Z,60.43
2019-03-28T08:31:57.311Z,53.13
2019-03-28T08:34:49.831Z,49.43
2019-03-28T08:37:43.789Z,41.70
2019-03-28T08:40:39.831Z,45.63
2019-03-28T08:43:35.825Z,45.93
2019-03-28T08:46:26.348Z,47.00
2019-03-28T08:49:18.864Z,49.57
2019-03-28T08:52:12.708Z,48.13
2019-03-28T08:55:05.449Z,46.90
2019-03-28T08:57:58.693Z,49.30
2019-03-28T09:00:52.800Z,48.13
2019-03-28T09:03:44.957Z,42.20
2019-03-28T09:06:37.743Z,33.30
2019-03-28T09:09:29.933Z,30.30
2019-03-28T09:12:22.222Z,28.17
2019-03-28T09:15:16.860Z,36.73
2019-03-28T09:18:09.282Z,31.40
2019-03-28T09:21:01.606Z,30.43
2019-03-28T09:23:54.100Z,28.90
2019-03-28T09:26:46.519Z,35.87
2019-03-28T09:29:39.074Z,26.17
2019-03-28T09:32:33.028Z,34.70
2019-03-28T09:35:32.372Z,32.07
2019-03-28T09:38:24.684Z,33.17
2019-03-28T09:41:17.201Z,30.90
2019-03-28T09:44:09.684Z,30.57
2019-03-28T09:47:01.800Z,32.47
2019-03-28T09:49:56.063Z,30.00
2019-03-28T09:52:48.658Z,34.30
2019-03-28T09:55:40.871Z,25.13
2019-03-28T09:58:33.929Z,32.07
2019-03-28T10:01:26.854Z,35.60
2019-03-28T10:04:19.337Z,32.53
2019-03-28T10:07:11.750Z,27.27
2019-03-28T10:10:04.300Z,29.87
2019-03-28T10:12:56.782Z,31.20
2019-03-28T10:15:49.048Z,27.50
2019-03-28T10:18:41.367Z,35.63
2019-03-28T10:21:33.825Z,28.07
2019-03-28T10:24:26.109Z,29.43
2019-03-28T10:27:19.482Z,26.43
2019-03-28T10:30:14.441Z,26.40
2019-03-28T10:33:07.020Z,27.97
2019-03-28T10:35:59.501Z,34.57
2019-03-28T10:38:52.457Z,26.47
2019-03-28T10:41:44.912Z,26.63
2019-03-28T10:44:37.349Z,26.43
2019-03-28T10:47:29.988Z,24.77
2019-03-28T10:50:22.664Z,22.73
2019-03-28T10:53:14.818Z,22.30
2019-03-28T10:56:20.509Z,20.70
2019-03-28T10:59:01.256Z,22.60
2019-03-28T11:01:53.997Z,22.70
2019-03-28T11:04:46.392Z,15.87
2019-03-28T11:07:38.634Z,15.17
2019-03-28T11:10:31.273Z,16.87
2019-03-28T11:13:23.530Z,21.97
2019-03-28T11:16:16.102Z,16.40
2019-03-28T11:19:08.913Z,17.10
2019-03-28T11:22:01.404Z,18.03
2019-03-28T11:24:53.533Z,21.07
2019-03-28T11:27:45.692Z,23.40
2019-03-28T11:30:38.153Z,20.53
2019-03-28T11:33:30.662Z,15.73
2019-03-28T11:36:23.034Z,20.23
2019-03-28T11:39:15.497Z,17.37
2019-03-28T11:42:07.814Z,21.77
2019-03-28T11:45:00.048Z,17.53
2019-03-28T11:47:52.910Z,13.97
2019-03-28T11:50:45.355Z,22.03
2019-03-28T11:53:37.730Z,19.03
2019-03-28T11:56:30.394Z,25.07
2019-03-28T11:59:22.798Z,30.07
2019-03-28T12:02:20.124Z,21.67
2019-03-28T12:05:09.723Z,18.90
2019-03-28T12:08:02.205Z,21.07
2019-03-28T12:10:54.808Z,25.13
2019-03-28T12:13:47.403Z,22.20
2019-03-28T12:16:39.844Z,25.67
2019-03-28T12:19:32.731Z,19.33
2019-03-28T12:22:25.219Z,15.53
2019-03-28T12:25:17.724Z,17.17
2019-03-28T12:28:10.131Z,22.33
2019-03-28T12:31:02.629Z,15.80
2019-03-28T12:33:55.070Z,21.13
2019-03-28T12:36:47.218Z,22.17
2019-03-28T12:39:39.744Z,26.37
2019-03-28T12:42:31.928Z,24.93
2019-03-28T12:45:24.436Z,21.07
2019-03-28T12:48:16.597Z,18.97
2019-03-28T12:51:08.832Z,21.20
2019-03-28T12:54:01.333Z,16.93
2019-03-28T12:56:54.033Z,17.60
2019-03-28T12:59:47.059Z,21.27
2019-03-28T13:02:39.460Z,15.90
2019-03-28T13:05:34.575Z,13.70
2019-03-28T13:08:25.968Z,21.10
2019-03-28T13:11:19.690Z,20.77
2019-03-28T13:14:12.487Z,18.10
2019-03-28T13:17:05.845Z,19.63
2019-03-28T13:19:58.361Z,16.43
2019-03-28T13:22:52.009Z,20.80
2019-03-28T13:25:44.507Z,15.50
2019-03-28T13:28:36.977Z,17.73
2019-03-28T13:31:30.326Z,20.67
2019-03-28T13:34:22.574Z,16.77
2019-03-28T13:37:15.044Z,17.53
2019-03-28T13:40:09.083Z,18.00
2019-03-28T13:43:01.455Z,20.70
2019-03-28T13:45:54.454Z,13.43
2019-03-28T13:48:47.357Z,14.97
2019-03-28T13:51:40.539Z,14.93
2019-03-28T13:54:32.791Z,16.87
2019-03-28T13:57:25.048Z,17.77
2019-03-28T14:00:20.687Z,17.07
2019-03-28T14:03:13.070Z,24.40
2019-03-28T14:06:06.359Z,18.87
2019-03-28T14:08:59.366Z,17.83
2019-03-28T14:11:51.576Z,20.63
2019-03-28T14:14:43.725Z,20.73
2019-03-28T14:17:36.735Z,17.80
2019-03-28T14:20:29.851Z,15.13
2019-03-28T14:23:22.294Z,16.30
2019-03-28T14:26:14.625Z,17.23
2019-03-28T14:29:07.199Z,16.23
2019-03-28T14:31:59.994Z,17.63
2019-03-28T14:34:53.171Z,22.70
2019-03-28T14:37:46.142Z,21.40
2019-03-28T14:40:38.401Z,14.70
2019-03-28T14:43:31.004Z,17.00
2019-03-28T14:46:23.891Z,15.70
2019-03-28T14:49:16.529Z,18.67
2019-03-28T14:52:09.012Z,17.47
2019-03-28T14:55:01.748Z,21.53
2019-03-28T14:57:54.256Z,11.70
2019-03-28T15:00:49.879Z,13.93
2019-03-28T15:03:42.014Z,20.90
2019-03-28T15:06:34.370Z,16.73
2019-03-28T15:09:26.720Z,12.07
2019-03-28T15:12:18.942Z,18.80
2019-03-28T15:15:11.287Z,13.73
2019-03-28T15:18:03.943Z,16.03
2019-03-28T15:20:56.509Z,11.83
2019-03-28T15:23:48.681Z,9.93
2019-03-28T15:26:41.080Z,11.93
2019-03-28T15:29:33.719Z,21.30
2019-03-28T15:32:26.420Z,14.53
2019-03-28T15:35:18.832Z,13.73
2019-03-28T15:38:11.893Z,13.70
2019-03-28T15:41:04.242Z,14.67
2019-03-28T15:43:56.650Z,12.90
2019-03-28T15:46:48.795Z,12.70
2019-03-28T15:49:41.329Z,12.23
2019-03-28T15:52:34.332Z,8.03
2019-03-28T15:55:26.549Z,18.10
2019-03-28T15:58:23.663Z,12.77
2019-03-28T16:01:13.349Z,11.10
2019-03-28T16:04:06.283Z,10.93
2019-03-28T16:07:00.221Z,12.33
2019-03-28T16:09:52.581Z,14.63
2019-03-28T16:12:44.798Z,14.10
2019-03-28T16:15:37.190Z,15.77
2019-03-28T16:18:30.268Z,9.33
2019-03-28T16:21:22.638Z,14.17
2019-03-28T16:24:14.963Z,14.10
2019-03-28T16:27:07.518Z,13.90
2019-03-28T16:30:00.560Z,10.23
2019-03-28T16:32:54.294Z,13.50
2019-03-28T16:35:46.660Z,11.83
2019-03-28T16:38:39.101Z,15.23
2019-03-28T16:41:31.550Z,10.00
2019-03-28T16:46:59.177Z,12.87
2019-03-28T16:49:51.506Z,16.50
2019-03-28T16:52:43.818Z,9.53
2019-03-28T16:55:35.981Z,11.23
2019-03-28T16:58:28.172Z,14.37
2019-03-28T17:01:20.643Z,14.57
2019-03-28T17:04:20.623Z,13.37
2019-03-28T17:07:08.373Z,13.73
2019-03-28T17:10:01.783Z,14.73
2019-03-28T17:12:54.700Z,16.20
2019-03-28T17:15:47.796Z,17.07
2019-03-28T17:18:41.035Z,16.40
2019-03-28T17:21:33.091Z,16.07
2019-03-28T17:24:25.356Z,21.10
2019-03-28T17:27:17.797Z,17.33
2019-03-28T17:30:10.683Z,17.23
2019-03-28T17:33:03.079Z,20.37
2019-03-28T17:35:55.585Z,14.83
2019-03-28T17:38:48.073Z,21.40
2019-03-28T17:41:40.638Z,15.17
2019-03-28T17:44:33.862Z,19.43
2019-03-28T17:47:26.647Z,23.30
2019-03-28T17:50:18.867Z,20.00
2019-03-28T17:53:11.537Z,23.00
2019-03-28T17:56:04.694Z,24.90
2019-03-28T17:58:57.523Z,23.17
2019-03-28T18:01:51.043Z,22.30
2019-03-28T18:04:48.099Z,22.90
2019-03-28T18:07:37.819Z,22.57
2019-03-28T18:10:29.996Z,22.87
2019-03-28T18:13:22.489Z,26.60
2019-03-28T18:16:15.699Z,27.67
2019-03-28T18:19:08.969Z,19.77
2019-03-28T18:22:03.809Z,22.70
2019-03-28T18:24:55.088Z,27.83
2019-03-28T18:27:47.224Z,32.87
2019-03-28T18:30:39.614Z,27.27
2019-03-28T18:33:31.804Z,40.20
2019-03-28T18:36:24.279Z,42.13
2019-03-28T18:39:16.673Z,44.33
2019-03-28T18:42:08.826Z,49.57
2019-03-28T18:45:01.325Z,41.30
2019-03-28T18:47:53.785Z,33.00
2019-03-28T18:50:46.580Z,22.67
2019-03-28T18:53:38.759Z,12.23
2019-03-28T18:56:31.238Z,14.20
2019-03-28T18:59:23.810Z,18.77
2019-03-28T19:02:16.549Z,15.30
2019-03-28T19:05:19.564Z,13.03
2019-03-28T19:08:02.981Z,12.97
2019-03-28T19:10:55.102Z,12.70
2019-03-28T19:13:48.448Z,17.53
2019-03-28T19:16:40.628Z,16.73
2019-03-28T19:19:39.616Z,19.77
2019-03-28T19:22:28.696Z,22.70
2019-03-28T19:25:21.128Z,15.93
2019-03-28T19:28:13.525Z,15.37
2019-03-28T19:31:05.847Z,14.50
2019-03-28T19:33:58.316Z,16.30
2019-03-28T19:36:51.692Z,14.20
2019-03-28T19:39:44.083Z,12.60
2019-03-28T19:42:36.986Z,18.47
2019-03-28T19:45:40.034Z,15.43
2019-03-28T19:48:32.422Z,16.70
2019-03-28T19:51:28.128Z,16.37
2019-03-28T19:54:18.542Z,15.13
2019-03-28T19:57:11.069Z,16.17
2019-03-28T20:00:03.637Z,31.97
2019-03-28T20:02:55.800Z,22.37
2019-03-28T20:05:49.371Z,21.27
2019-03-28T20:08:42.168Z,18.67
2019-03-28T20:11:34.538Z,25.10
2019-03-28T20:14:26.647Z,21.97
2019-03-28T20:17:19.101Z,20.80
2019-03-28T20:20:11.650Z,20.87
2019-03-28T20:23:03.833Z,21.57
2019-03-28T20:25:56.809Z,18.57
2019-03-28T20:28:50.145Z,13.40
2019-03-28T20:31:42.787Z,22.77
2019-03-28T20:34:35.215Z,21.50
2019-03-28T20:37:27.666Z,16.93
2019-03-28T20:40:21.013Z,16.30
2019-03-28T20:43:13.092Z,16.17
2019-03-28T20:46:05.314Z,22.77
2019-03-28T20:48:58.880Z,14.60
2019-03-28T20:51:51.966Z,17.17
2019-03-28T20:54:44.483Z,18.30
2019-03-28T20:57:40.205Z,17.33
2019-03-28T21:00:44.920Z,16.83
2019-03-28T21:03:37.205Z,15.67
2019-03-28T21:06:29.568Z,13.67
2019-03-28T21:09:21.650Z,21.87
2019-03-28T21:12:13.786Z,17.37
2019-03-28T21:15:06.194Z,21.83
2019-03-28T21:17:58.610Z,19.50
2019-03-28T21:20:50.812Z,18.93
2019-03-28T21:23:43.079Z,21.40
2019-03-28T21:26:35.456Z,22.30
2019-03-28T21:29:28.525Z,21.87
2019-03-28T21:32:20.793Z,20.17
2019-03-28T21:35:13.400Z,20.87
2019-03-28T21:38:05.743Z,20.67
2019-03-28T21:40:59.535Z,24.00
2019-03-28T21:43:52.827Z,21.50
2019-03-28T21:46:45.489Z,24.07
2019-03-28T21:49:37.612Z,23.93
2019-03-28T21:52:30.730Z,25.63
2019-03-28T21:55:23.127Z,24.57
2019-03-28T21:58:16.015Z,24.33
2019-03-28T22:01:08.437Z,30.10
2019-03-28T22:04:00.817Z,30.00
2019-03-28T22:06:52.956Z,25.87
2019-03-28T22:09:45.817Z,28.83
2019-03-28T22:12:38.307Z,26.80
2019-03-28T22:15:31.141Z,30.93
2019-03-28T22:18:24.354Z,25.43
2019-03-28T22:21:16.864Z,33.63
2019-03-28T22:24:09.071Z,28.30
2019-03-28T22:27:01.643Z,34.00
2019-03-28T22:29:53.984Z,33.00
2019-03-28T22:32:46.611Z,34.97
2019-03-28T22:35:39.022Z,30.57
2019-03-28T22:38:31.606Z,35.67
2019-03-28T22:41:24.608Z,38.07
2019-03-28T22:44:16.808Z,37.73
2019-03-28T22:47:09.259Z,37.17
2019-03-28T22:50:01.624Z,37.70
2019-03-28T22:52:55.868Z,38.97
2019-03-28T22:55:48.317Z,41.97
2019-03-28T22:58:40.769Z,41.53
2019-03-28T23:01:33.637Z,42.13
2019-03-28T23:04:26.212Z,37.10
2019-03-28T23:07:18.620Z,38.77
2019-03-28T23:10:13.022Z,39.10
2019-03-28T23:13:05.882Z,41.00
2019-03-28T23:15:57.968Z,39.63
2019-03-28T23:18:50.286Z,44.80
2019-03-28T23:21:42.882Z,48.40
2019-03-28T23:24:38.895Z,41.50
2019-03-28T23:27:29.375Z,35.77
2019-03-28T23:30:21.988Z,51.60
2019-03-28T23:33:14.911Z,42.10
2019-03-28T23:36:07.281Z,41.73
2019-03-28T23:38:59.495Z,48.33
2019-03-28T23:41:51.853Z,46.57
2019-03-28T23:44:44.001Z,42.53
2019-03-28T23:47:36.125Z,44.50
2019-03-28T23:50:28.604Z,46.30
2019-03-28T23:53:21.146Z,48.03
2019-03-28T23:56:13.540Z,40.20
2019-03-28T23:59:05.598Z,42.40
